Time;durP1;ratioP1;P1;durP2;ratioP2;P2;SDS_P1;SDS_P2;PMS_P1;PMS_P2;Temp;Humidity;BMP_temperature;BMP_pressure;BME280_temperature;BME280_humidity;BME280_pressure;Samples;Min_cycle;Max_cycle;Signal;HPM_P1;HPM_P2
2023/01/25 00:01:49;;;;;;;36.22;12.63;;;;;;;;;;5055119;28;20027;-63
2023/01/25 00:04:15;;;;;;;37.03;13.45;;;;;;;;;;5058414;28;20092;-60
2023/01/25 00:06:40;;;;;;;32.03;12.67;;;;;;;;;;5065258;28;20008;-62
2023/01/25 00:09:05;;;;;;;35.97;13.55;;;;;;;;;;5052363;28;20469;-63
2023/01/25 00:11:30;;;;;;;31.02;12.90;;;;;;;;;;5057320;28;20005;-63
2023/01/25 00:13:56;;;;;;;34.10;12.65;;;;;;;;;;5057199;28;20036;-62
2023/01/25 00:16:21;;;;;;;31.75;12.10;;;;;;;;;;5054000;28;20846;-62
2023/01/25 00:18:47;;;;;;;34.25;13.07;;;;;;;;;;5048000;28;20044;-64
2023/01/25 00:21:12;;;;;;;33.05;12.63;;;;;;;;;;5050320;28;20108;-62
2023/01/25 00:23:37;;;;;;;34.60;12.68;;;;;;;;;;5053112;28;20031;-61
2023/01/25 00:26:03;;;;;;;31.20;12.48;;;;;;;;;;5048249;28;20040;-61
2023/01/25 00:28:28;;;;;;;32.20;13.13;;;;;;;;;;5052012;28;20437;-62
2023/01/25 00:30:57;;;;;;;33.47;12.38;;;;;;;;;;5056053;28;20029;-62
2023/01/25 00:33:39;;;;;;;33.17;12.20;;;;;;;;;;5052124;28;20126;-63
2023/01/25 00:36:23;;;;;;;32.50;12.07;;;;;;;;;;5054698;28;20035;-63
2023/01/25 00:38:48;;;;;;;28.92;11.57;;;;;;;;;;5049154;28;20024;-61
2023/01/25 00:41:13;;;;;;;34.03;12.32;;;;;;;;;;5054822;28;20032;-63
2023/01/25 00:43:38;;;;;;;33.47;12.43;;;;;;;;;;5061325;28;20017;-71
2023/01/25 00:46:03;;;;;;;30.15;11.88;;;;;;;;;;5056241;28;20391;-63
2023/01/25 00:48:29;;;;;;;28.57;12.57;;;;;;;;;;5056926;28;20024;-63
2023/01/25 00:50:54;;;;;;;28.20;11.55;;;;;;;;;;5051671;28;20463;-64
2023/01/25 00:53:19;;;;;;;24.25;10.07;;;;;;;;;;5053345;28;20410;-64
2023/01/25 00:55:51;;;;;;;27.88;11.20;;;;;;;;;;5061207;28;20116;-64
2023/01/25 00:58:16;;;;;;;29.35;11.13;;;;;;;;;;5050936;28;20491;-63
2023/01/25 01:00:41;;;;;;;29.83;11.27;;;;;;;;;;5051185;28;20088;-63
2023/01/25 01:03:07;;;;;;;26.10;10.95;;;;;;;;;;5051878;28;20037;-63
2023/01/25 01:05:33;;;;;;;24.50;10.15;;;;;;;;;;5053622;28;20025;-65
2023/01/25 01:07:58;;;;;;;25.88;10.43;;;;;;;;;;5054262;28;20033;-64
2023/01/25 01:10:24;;;;;;;27.33;11.27;;;;;;;;;;5054802;28;20028;-63
2023/01/25 01:12:49;;;;;;;21.57;9.47;;;;;;;;;;5065404;28;20469;-64
2023/01/25 01:15:15;;;;;;;24.75;9.20;;;;;;;;;;5054318;28;20029;-64
2023/01/25 01:17:40;;;;;;;22.13;8.93;;;;;;;;;;5060360;28;20043;-66
2023/01/25 01:20:05;;;;;;;22.13;8.30;;;;;;;;;;5052120;28;20025;-65
2023/01/25 01:22:30;;;;;;;20.90;8.00;;;;;;;;;;5055854;28;20044;-62
2023/01/25 01:24:55;;;;;;;19.92;8.45;;;;;;;;;;5052124;28;20026;-65
2023/01/25 01:27:20;;;;;;;23.20;9.57;;;;;;;;;;5050447;28;20025;-64
2023/01/25 01:29:45;;;;;;;20.67;8.07;;;;;;;;;;5054190;28;20038;-67
2023/01/25 01:32:11;;;;;;;26.00;9.70;;;;;;;;;;5052587;28;20506;-64
2023/01/25 01:34:36;;;;;;;19.17;8.73;;;;;;;;;;5049543;28;20033;-70
2023/01/25 01:37:01;;;;;;;25.98;9.75;;;;;;;;;;5049815;28;20021;-64
2023/01/25 01:39:26;;;;;;;24.45;9.80;;;;;;;;;;5056660;28;20072;-65
2023/01/25 01:41:52;;;;;;;21.42;8.98;;;;;;;;;;5053051;28;20550;-64
2023/01/25 01:44:19;;;;;;;19.70;8.05;;;;;;;;;;5060478;28;20029;-64
2023/01/25 01:46:50;;;;;;;21.20;7.78;;;;;;;;;;5057851;28;20112;-69
2023/01/25 01:49:18;;;;;;;21.20;8.15;;;;;;;;;;5050055;28;20037;-64
2023/01/25 01:51:45;;;;;;;22.20;7.97;;;;;;;;;;5049478;28;20377;-64
2023/01/25 01:54:17;;;;;;;20.73;7.70;;;;;;;;;;5057174;28;20071;-63
2023/01/25 01:56:49;;;;;;;21.45;8.63;;;;;;;;;;5052944;28;20032;-64
2023/01/25 01:59:15;;;;;;;24.83;9.68;;;;;;;;;;5060727;28;20024;-65
2023/01/25 02:01:40;;;;;;;22.20;9.40;;;;;;;;;;5048624;28;20074;-66
2023/01/25 02:04:06;;;;;;;24.23;9.37;;;;;;;;;;5047968;28;20031;-63
2023/01/25 02:06:35;;;;;;;21.65;8.43;;;;;;;;;;5052265;28;20843;-62
2023/01/25 02:09:00;;;;;;;22.23;9.02;;;;;;;;;;5053100;28;20108;-62
2023/01/25 02:11:26;;;;;;;21.35;8.40;;;;;;;;;;5062189;28;20116;-64
2023/01/25 02:13:52;;;;;;;22.50;9.45;;;;;;;;;;5053689;28;21873;-65
2023/01/25 02:16:21;;;;;;;20.83;8.20;;;;;;;;;;5046659;28;20421;-62
2023/01/25 02:18:46;;;;;;;21.63;9.05;;;;;;;;;;5048988;28;20048;-63
2023/01/25 02:21:11;;;;;;;23.63;10.23;;;;;;;;;;5051371;28;20057;-62
2023/01/25 02:23:54;;;;;;;22.60;8.90;;;;;;;;;;5056793;28;20107;-66
2023/01/25 02:26:19;;;;;;;22.38;9.48;;;;;;;;;;5047389;28;20029;-65
2023/01/25 02:28:49;;;;;;;22.03;9.33;;;;;;;;;;5049860;28;20012;-62
2023/01/25 02:31:14;;;;;;;25.58;9.00;;;;;;;;;;5047514;28;20494;-64
2023/01/25 02:33:40;;;;;;;19.45;8.23;;;;;;;;;;5057974;28;20024;-63
2023/01/25 02:36:08;;;;;;;23.52;9.57;;;;;;;;;;5059211;28;20025;-62
2023/01/25 02:38:34;;;;;;;21.50;8.88;;;;;;;;;;5048632;28;20021;-63
2023/01/25 02:41:02;;;;;;;24.55;9.38;;;;;;;;;;5047754;28;20021;-63
2023/01/25 02:43:29;;;;;;;22.15;8.80;;;;;;;;;;5043083;28;20016;-62
2023/01/25 02:45:59;;;;;;;21.02;8.55;;;;;;;;;;5050388;28;20059;-62
2023/01/25 02:48:24;;;;;;;21.38;8.43;;;;;;;;;;5049638;28;20243;-63
2023/01/25 02:50:49;;;;;;;20.95;8.52;;;;;;;;;;5049158;28;20481;-63
2023/01/25 02:53:14;;;;;;;20.07;9.00;;;;;;;;;;5048659;28;20052;-62
2023/01/25 02:55:39;;;;;;;21.65;9.05;;;;;;;;;;5057056;28;20029;-64
2023/01/25 02:58:04;;;;;;;25.17;9.98;;;;;;;;;;5067022;28;20028;-62
2023/01/25 03:00:30;;;;;;;21.90;9.20;;;;;;;;;;5055548;28;20028;-65
2023/01/25 03:02:55;;;;;;;21.60;9.20;;;;;;;;;;5052081;28;20073;-62
2023/01/25 03:05:20;;;;;;;23.13;8.87;;;;;;;;;;5050407;28;20024;-65
2023/01/25 03:07:45;;;;;;;23.97;9.17;;;;;;;;;;5048696;28;20654;-63
2023/01/25 03:10:10;;;;;;;22.63;9.23;;;;;;;;;;5058482;28;20029;-63
2023/01/25 03:12:35;;;;;;;21.30;9.27;;;;;;;;;;5070261;28;20076;-61
2023/01/25 03:15:00;;;;;;;23.13;9.43;;;;;;;;;;5059310;28;20060;-64
2023/01/25 03:17:26;;;;;;;24.88;10.07;;;;;;;;;;5049292;28;20116;-62
2023/01/25 03:19:52;;;;;;;23.20;9.67;;;;;;;;;;5049380;28;20032;-65
2023/01/25 03:22:17;;;;;;;24.88;9.80;;;;;;;;;;5050110;28;20021;-62
2023/01/25 03:24:43;;;;;;;24.48;9.93;;;;;;;;;;5061789;28;20017;-62
2023/01/25 03:27:12;;;;;;;25.85;11.00;;;;;;;;;;5049368;28;20036;-64
2023/01/25 03:29:37;;;;;;;22.50;9.98;;;;;;;;;;5057762;28;20021;-65
2023/01/25 03:32:03;;;;;;;24.70;10.07;;;;;;;;;;5052992;28;20025;-62
2023/01/25 03:34:28;;;;;;;23.80;9.33;;;;;;;;;;5049492;28;20397;-66
2023/01/25 03:36:53;;;;;;;24.97;9.70;;;;;;;;;;5051846;28;20820;-64
2023/01/25 03:39:18;;;;;;;22.05;10.05;;;;;;;;;;5053774;28;20072;-73
2023/01/25 03:41:43;;;;;;;26.50;10.63;;;;;;;;;;5053105;28;20037;-64
2023/01/25 03:44:10;;;;;;;23.42;9.73;;;;;;;;;;5052380;28;20028;-68
2023/01/25 03:46:39;;;;;;;19.55;7.80;;;;;;;;;;5053097;28;20028;-64
2023/01/25 03:49:05;;;;;;;23.33;8.63;;;;;;;;;;5052996;28;20028;-64
2023/01/25 03:51:30;;;;;;;21.60;8.30;;;;;;;;;;5057407;28;20017;-64
2023/01/25 03:53:55;;;;;;;22.52;8.60;;;;;;;;;;5053272;28;20048;-65
2023/01/25 03:56:20;;;;;;;23.92;9.52;;;;;;;;;;5053428;28;20023;-64
2023/01/25 03:58:46;;;;;;;25.33;10.25;;;;;;;;;;5052716;28;20489;-63
2023/01/25 04:01:11;;;;;;;21.92;8.60;;;;;;;;;;5052623;28;20017;-64
2023/01/25 04:03:36;;;;;;;21.88;9.25;;;;;;;;;;5051275;28;20033;-66
2023/01/25 04:06:02;;;;;;;20.42;7.78;;;;;;;;;;5054371;28;20029;-64
2023/01/25 04:08:27;;;;;;;13.60;5.38;;;;;;;;;;5052299;28;20824;-62
2023/01/25 04:10:53;;;;;;;17.73;7.27;;;;;;;;;;5053051;28;20672;-62
2023/01/25 04:13:19;;;;;;;17.55;6.93;;;;;;;;;;5052836;28;20025;-62
2023/01/25 04:15:44;;;;;;;16.55;6.72;;;;;;;;;;5051192;28;20120;-63
2023/01/25 04:18:09;;;;;;;16.98;6.53;;;;;;;;;;5065649;28;20024;-63
2023/01/25 04:20:35;;;;;;;20.15;7.43;;;;;;;;;;5049475;28;20053;-62
2023/01/25 04:23:00;;;;;;;16.50;7.03;;;;;;;;;;5052895;28;20029;-63
2023/01/25 04:25:25;;;;;;;17.03;7.03;;;;;;;;;;5052712;28;20474;-61
2023/01/25 04:27:50;;;;;;;18.70;7.13;;;;;;;;;;5051522;28;20060;-61
2023/01/25 04:30:15;;;;;;;16.87;7.37;;;;;;;;;;5051038;28;20115;-63
2023/01/25 04:32:41;;;;;;;15.93;6.80;;;;;;;;;;5052227;28;20025;-61
2023/01/25 04:35:06;;;;;;;16.17;6.83;;;;;;;;;;5049511;28;20037;-61
2023/01/25 04:37:31;;;;;;;16.33;7.23;;;;;;;;;;5060637;28;20017;-62
2023/01/25 04:39:56;;;;;;;20.42;8.82;;;;;;;;;;5060533;28;20597;-62
2023/01/25 04:42:21;;;;;;;20.67;9.45;;;;;;;;;;5059281;28;20099;-63
2023/01/25 04:44:46;;;;;;;18.65;8.32;;;;;;;;;;5052579;28;20040;-62
2023/01/25 04:47:12;;;;;;;16.15;6.88;;;;;;;;;;5055036;28;20478;-61
2023/01/25 04:49:37;;;;;;;18.23;7.83;;;;;;;;;;5054756;28;20028;-62
2023/01/25 04:52:02;;;;;;;18.55;7.72;;;;;;;;;;5056283;28;20013;-62
2023/01/25 04:54:27;;;;;;;19.77;9.10;;;;;;;;;;5048948;28;20067;-61
2023/01/25 04:56:52;;;;;;;20.70;8.55;;;;;;;;;;5050874;28;20028;-62
2023/01/25 04:59:17;;;;;;;18.30;8.23;;;;;;;;;;5060267;28;20038;-62
2023/01/25 05:01:43;;;;;;;19.97;8.70;;;;;;;;;;5050814;28;20037;-62
2023/01/25 05:04:08;;;;;;;20.23;7.87;;;;;;;;;;5051177;28;20033;-62
2023/01/25 05:06:33;;;;;;;16.20;6.95;;;;;;;;;;5052031;28;20013;-63
2023/01/25 05:08:58;;;;;;;15.80;6.70;;;;;;;;;;5052149;28;20028;-62
2023/01/25 05:11:23;;;;;;;16.58;6.90;;;;;;;;;;5051554;28;20017;-62
2023/01/25 05:13:48;;;;;;;17.67;7.40;;;;;;;;;;5057170;28;20043;-62
2023/01/25 05:16:13;;;;;;;16.83;6.60;;;;;;;;;;5051833;28;20017;-62
2023/01/25 05:18:39;;;;;;;17.33;7.57;;;;;;;;;;5047961;28;20020;-62
2023/01/25 05:21:04;;;;;;;22.70;8.60;;;;;;;;;;5051512;28;20505;-62
2023/01/25 05:23:29;;;;;;;19.40;8.43;;;;;;;;;;5057280;28;20063;-61
2023/01/25 05:28:38;;;;;;;13.02;5.65;;;;;;;;;;5040335;28;20082;-61
2023/01/25 05:31:03;;;;;;;12.93;6.22;;;;;;;;;;5050771;28;20025;-61
2023/01/25 05:33:29;;;;;;;16.67;7.00;;;;;;;;;;5050380;28;20040;-62
2023/01/25 05:35:55;;;;;;;18.77;7.10;;;;;;;;;;5046673;28;20044;-62
2023/01/25 05:38:20;;;;;;;18.05;6.90;;;;;;;;;;5049703;28;20020;-62
2023/01/25 05:40:45;;;;;;;18.20;7.47;;;;;;;;;;5048059;28;20035;-62
2023/01/25 05:43:10;;;;;;;18.25;7.35;;;;;;;;;;5048074;28;20444;-62
2023/01/25 05:45:35;;;;;;;17.48;7.15;;;;;;;;;;5039068;28;20025;-62
2023/01/25 05:48:00;;;;;;;19.17;8.17;;;;;;;;;;5048036;28;20044;-62
2023/01/25 05:50:26;;;;;;;17.95;8.23;;;;;;;;;;5038493;28;20685;-63
2023/01/25 05:52:51;;;;;;;20.38;8.60;;;;;;;;;;5054517;28;20078;-62
2023/01/25 05:55:16;;;;;;;20.27;7.70;;;;;;;;;;5041563;28;20054;-62
2023/01/25 05:57:42;;;;;;;16.20;6.83;;;;;;;;;;5040396;28;20029;-60
2023/01/25 06:00:08;;;;;;;16.85;7.05;;;;;;;;;;5048036;28;20051;-61
2023/01/25 06:02:33;;;;;;;19.02;8.48;;;;;;;;;;5046473;28;20017;-62
2023/01/25 06:04:58;;;;;;;17.07;7.80;;;;;;;;;;5045192;28;20048;-60
2023/01/25 06:07:23;;;;;;;19.40;7.85;;;;;;;;;;5050044;28;20059;-61
2023/01/25 06:09:48;;;;;;;17.97;7.40;;;;;;;;;;5046103;28;20413;-62
2023/01/25 06:12:14;;;;;;;18.25;7.57;;;;;;;;;;5057103;28;20025;-61
2023/01/25 06:14:40;;;;;;;16.27;7.20;;;;;;;;;;5058613;28;20071;-60
2023/01/25 06:17:05;;;;;;;21.70;8.60;;;;;;;;;;5056951;28;20045;-62
2023/01/25 06:19:30;;;;;;;20.43;7.83;;;;;;;;;;5050085;28;20040;-61
2023/01/25 06:21:55;;;;;;;18.65;8.48;;;;;;;;;;5057229;28;20091;-59
2023/01/25 06:24:20;;;;;;;14.15;5.95;;;;;;;;;;5045816;28;20052;-60
2023/01/25 06:26:45;;;;;;;16.83;6.60;;;;;;;;;;5046908;28;20516;-62
2023/01/25 06:29:10;;;;;;;14.87;6.70;;;;;;;;;;5046142;28;20052;-61
2023/01/25 06:31:36;;;;;;;16.77;7.82;;;;;;;;;;5046460;28;20025;-60
2023/01/25 06:34:03;;;;;;;20.23;8.13;;;;;;;;;;5045036;28;20025;-61
2023/01/25 06:36:28;;;;;;;21.08;8.00;;;;;;;;;;5041824;28;20040;-62
2023/01/25 06:38:53;;;;;;;20.00;8.30;;;;;;;;;;5051684;28;20475;-60
2023/01/25 06:41:19;;;;;;;17.83;7.90;;;;;;;;;;5046452;28;20094;-60
2023/01/25 06:43:44;;;;;;;17.23;8.03;;;;;;;;;;5049576;28;20063;-61
2023/01/25 06:46:10;;;;;;;16.33;6.93;;;;;;;;;;5054707;28;20492;-60
2023/01/25 06:48:36;;;;;;;18.48;7.38;;;;;;;;;;5055863;28;20500;-61
2023/01/25 06:51:03;;;;;;;16.90;7.40;;;;;;;;;;5055428;28;20024;-61
2023/01/25 06:53:30;;;;;;;16.40;6.78;;;;;;;;;;5047325;28;20040;-63
2023/01/25 06:55:55;;;;;;;;;;;;;;;;;;5040835;28;20029;-61
2023/01/25 06:58:20;;;;;;;18.10;7.40;;;;;;;;;;5049685;28;20469;-61
2023/01/25 07:00:45;;;;;;;19.25;7.82;;;;;;;;;;5053101;28;20029;-62
2023/01/25 07:03:10;;;;;;;17.83;7.65;;;;;;;;;;5051627;28;20033;-61
2023/01/25 07:05:35;;;;;;;16.70;6.45;;;;;;;;;;5061077;28;20505;-63
2023/01/25 07:08:00;;;;;;;16.73;6.65;;;;;;;;;;5048703;28;20040;-60
2023/01/25 07:10:26;;;;;;;16.30;7.35;;;;;;;;;;5056515;28;20022;-61
2023/01/25 07:12:51;;;;;;;16.33;6.57;;;;;;;;;;5048280;28;20506;-61
2023/01/25 07:15:16;;;;;;;18.77;7.50;;;;;;;;;;5049614;28;20041;-61
2023/01/25 07:17:41;;;;;;;16.58;7.75;;;;;;;;;;5049806;28;20028;-61
2023/01/25 07:20:06;;;;;;;17.35;7.22;;;;;;;;;;5049306;28;20555;-62
2023/01/25 07:22:32;;;;;;;14.77;6.10;;;;;;;;;;5056073;28;20017;-61
2023/01/25 07:24:58;;;;;;;15.75;6.30;;;;;;;;;;5056092;28;20025;-61
2023/01/25 07:27:23;;;;;;;14.90;6.33;;;;;;;;;;5049789;28;20611;-61
2023/01/25 07:29:48;;;;;;;13.02;6.32;;;;;;;;;;5050242;28;20017;-63
2023/01/25 07:32:13;;;;;;;15.88;6.40;;;;;;;;;;5049805;28;20028;-62
2023/01/25 07:34:39;;;;;;;14.38;5.97;;;;;;;;;;5048646;28;20057;-63
2023/01/25 07:37:04;;;;;;;16.67;7.18;;;;;;;;;;5064264;28;20028;-64
2023/01/25 07:39:29;;;;;;;15.13;6.17;;;;;;;;;;5057196;28;20024;-63
2023/01/25 07:41:54;;;;;;;16.90;7.15;;;;;;;;;;5051839;28;20052;-63
2023/01/25 07:44:19;;;;;;;15.85;6.20;;;;;;;;;;5049996;28;20405;-63
2023/01/25 07:46:44;;;;;;;18.08;7.38;;;;;;;;;;5049397;28;20075;-62
2023/01/25 07:49:10;;;;;;;15.83;7.47;;;;;;;;;;5049383;28;20064;-62
2023/01/25 07:51:35;;;;;;;16.88;7.55;;;;;;;;;;5052171;28;20024;-62
2023/01/25 07:54:02;;;;;;;19.88;7.93;;;;;;;;;;5061044;28;20075;-62
2023/01/25 07:56:31;;;;;;;18.98;7.78;;;;;;;;;;5047861;28;20076;-62
2023/01/25 07:58:57;;;;;;;16.38;7.07;;;;;;;;;;5048671;28;20067;-63
2023/01/25 08:01:24;;;;;;;17.73;7.13;;;;;;;;;;5048620;28;20032;-61
2023/01/25 08:03:49;;;;;;;18.33;7.85;;;;;;;;;;5049451;28;20497;-60
2023/01/25 08:06:15;;;;;;;18.90;8.00;;;;;;;;;;5048663;28;20033;-61
2023/01/25 08:08:41;;;;;;;16.52;7.18;;;;;;;;;;5052001;28;20028;-62
2023/01/25 08:11:08;;;;;;;16.95;7.78;;;;;;;;;;5053760;28;20402;-63
2023/01/25 08:13:34;;;;;;;18.02;8.15;;;;;;;;;;5051783;28;20086;-63
2023/01/25 08:15:59;;;;;;;16.67;7.63;;;;;;;;;;5052186;28;20029;-60
2023/01/25 08:18:24;;;;;;;17.55;7.30;;;;;;;;;;5053648;28;20037;-62
2023/01/25 08:20:49;;;;;;;17.65;7.57;;;;;;;;;;5049146;28;20445;-60
2023/01/25 08:23:14;;;;;;;16.63;7.60;;;;;;;;;;5066863;28;20028;-60
2023/01/25 08:25:39;;;;;;;14.23;6.40;;;;;;;;;;5054158;28;20036;-61
2023/01/25 08:28:05;;;;;;;16.27;7.67;;;;;;;;;;5053293;28;20017;-63
2023/01/25 08:30:30;;;;;;;16.38;7.13;;;;;;;;;;5049216;28;20029;-60
2023/01/25 08:32:55;;;;;;;18.88;8.05;;;;;;;;;;5053031;28;20472;-63
2023/01/25 08:35:20;;;;;;;18.40;8.50;;;;;;;;;;5052453;28;20040;-62
2023/01/25 08:37:45;;;;;;;16.40;7.57;;;;;;;;;;5057801;28;20040;-63
2023/01/25 08:40:12;;;;;;;16.10;7.38;;;;;;;;;;5053212;28;20466;-61
2023/01/25 08:42:37;;;;;;;16.23;6.85;;;;;;;;;;5052808;28;20021;-61
2023/01/25 08:45:03;;;;;;;19.20;8.10;;;;;;;;;;5052412;28;20028;-63
2023/01/25 08:47:28;;;;;;;19.20;8.32;;;;;;;;;;5047497;28;20501;-61
2023/01/25 08:49:54;;;;;;;16.70;8.33;;;;;;;;;;5033428;28;20056;-62
2023/01/25 08:52:19;;;;;;;19.58;7.68;;;;;;;;;;5063150;28;20043;-62
2023/01/25 08:54:44;;;;;;;16.35;7.13;;;;;;;;;;5061591;28;20044;-60
2023/01/25 08:57:09;;;;;;;19.23;8.32;;;;;;;;;;5052580;28;20502;-62
2023/01/25 08:59:34;;;;;;;18.65;8.23;;;;;;;;;;5052130;28;20021;-61
2023/01/25 09:01:59;;;;;;;19.15;8.20;;;;;;;;;;5052442;28;20036;-62
2023/01/25 09:04:27;;;;;;;21.10;9.35;;;;;;;;;;5052413;28;20450;-63
2023/01/25 09:06:52;;;;;;;20.27;8.52;;;;;;;;;;5058649;28;20025;-61
2023/01/25 09:09:17;;;;;;;20.00;8.53;;;;;;;;;;5054837;28;20035;-62
2023/01/25 09:11:42;;;;;;;18.73;8.32;;;;;;;;;;5051334;28;20029;-62
2023/01/25 09:14:07;;;;;;;20.93;8.37;;;;;;;;;;5052243;28;20505;-63
2023/01/25 09:16:33;;;;;;;19.13;7.47;;;;;;;;;;5052276;28;20033;-63
2023/01/25 09:19:00;;;;;;;17.43;7.97;;;;;;;;;;5052211;28;20045;-63
2023/01/25 09:21:25;;;;;;;19.00;7.10;;;;;;;;;;5051506;28;20104;-63
2023/01/25 09:23:51;;;;;;;18.88;7.57;;;;;;;;;;5052829;28;20096;-62
2023/01/25 09:26:16;;;;;;;20.23;8.13;;;;;;;;;;5050464;28;20470;-62
2023/01/25 09:28:42;;;;;;;18.95;7.40;;;;;;;;;;5051409;28;20053;-62
2023/01/25 09:31:09;;;;;;;19.27;7.32;;;;;;;;;;5051524;28;20029;-63
2023/01/25 09:33:35;;;;;;;21.55;8.20;;;;;;;;;;5051651;28;20025;-62
2023/01/25 09:36:01;;;;;;;17.20;6.82;;;;;;;;;;5051465;28;20470;-62
2023/01/25 09:38:26;;;;;;;17.63;7.07;;;;;;;;;;5053095;28;20054;-62
2023/01/25 09:41:05;;;;;;;16.83;7.03;;;;;;;;;;5062553;28;20028;-62
2023/01/25 09:43:38;;;;;;;19.98;7.80;;;;;;;;;;5071933;28;20062;-62
2023/01/25 09:46:13;;;;;;;17.90;7.80;;;;;;;;;;5061811;28;20025;-62
2023/01/25 09:48:42;;;;;;;17.95;7.80;;;;;;;;;;5058258;28;20083;-62
2023/01/25 09:51:22;;;;;;;18.85;7.97;;;;;;;;;;5050857;28;20414;-62
2023/01/25 09:53:49;;;;;;;19.67;7.80;;;;;;;;;;5050596;28;20058;-62
2023/01/25 09:56:24;;;;;;;20.75;9.02;;;;;;;;;;5051275;28;20162;-63
2023/01/25 09:58:56;;;;;;;19.65;8.43;;;;;;;;;;5050336;28;20051;-61
2023/01/25 10:01:40;;;;;;;18.40;8.43;;;;;;;;;;5061307;28;20017;-61
2023/01/25 10:04:05;;;;;;;19.77;8.20;;;;;;;;;;5071314;28;20474;-64
2023/01/25 10:06:35;;;;;;;18.77;8.20;;;;;;;;;;5067666;28;20032;-60
2023/01/25 10:09:32;;;;;;;18.75;8.13;;;;;;;;;;5049825;28;20089;-62
2023/01/25 10:12:04;;;;;;;18.42;8.23;;;;;;;;;;5022786;28;20116;-62
2023/01/25 10:14:34;;;;;;;18.58;7.82;;;;;;;;;;5056027;28;20470;-63
2023/01/25 10:17:25;;;;;;;18.33;7.85;;;;;;;;;;5072705;28;20099;-63
2023/01/25 10:20:03;;;;;;;16.75;7.07;;;;;;;;;;5068240;28;20120;-62
2023/01/25 10:22:31;;;;;;;17.95;7.32;;;;;;;;;;5050542;28;20091;-61
2023/01/25 10:25:15;;;;;;;18.85;8.25;;;;;;;;;;5050340;28;20027;-61
2023/01/25 10:27:48;;;;;;;18.77;8.43;;;;;;;;;;5052672;28;20024;-63
2023/01/25 10:30:27;;;;;;;17.40;7.07;;;;;;;;;;5038856;28;20598;-62
2023/01/25 10:33:09;;;;;;;16.52;7.07;;;;;;;;;;5030769;28;20029;-62
2023/01/25 10:35:36;;;;;;;17.40;7.18;;;;;;;;;;5034954;28;20131;-62
2023/01/25 10:38:04;;;;;;;17.55;7.78;;;;;;;;;;5049908;28;20021;-62
2023/01/25 10:40:34;;;;;;;16.73;7.22;;;;;;;;;;5050131;28;20029;-62
2023/01/25 10:43:02;;;;;;;19.60;7.70;;;;;;;;;;5050726;28;20021;-62
2023/01/25 10:45:27;;;;;;;18.55;7.80;;;;;;;;;;5040119;28;20072;-62
2023/01/25 10:47:56;;;;;;;15.87;6.40;;;;;;;;;;5030668;28;20059;-63
2023/01/25 10:50:45;;;;;;;18.88;7.40;;;;;;;;;;5040877;28;20423;-62
2023/01/25 10:53:21;;;;;;;16.13;7.00;;;;;;;;;;5048862;28;20386;-62
2023/01/25 10:56:05;;;;;;;18.38;7.22;;;;;;;;;;5058258;28;20025;-62
2023/01/25 10:58:35;;;;;;;16.17;6.35;;;;;;;;;;5030538;28;20037;-62
2023/01/25 11:01:00;;;;;;;16.00;7.00;;;;;;;;;;5029528;28;20036;-61
2023/01/25 11:03:32;;;;;;;19.85;8.05;;;;;;;;;;5032825;28;20096;-62
2023/01/25 11:05:58;;;;;;;15.25;6.97;;;;;;;;;;5050525;28;20028;-62
2023/01/25 11:08:29;;;;;;;15.02;7.28;;;;;;;;;;5050335;28;20017;-62
2023/01/25 11:10:55;;;;;;;19.00;7.78;;;;;;;;;;5046974;28;20067;-62
2023/01/25 11:13:21;;;;;;;17.05;7.13;;;;;;;;;;5060306;28;20029;-61
2023/01/25 11:15:49;;;;;;;15.00;7.00;;;;;;;;;;5072773;28;20056;-62
2023/01/25 11:18:22;;;;;;;16.98;7.18;;;;;;;;;;5070591;28;20020;-62
2023/01/25 11:20:47;;;;;;;17.15;7.55;;;;;;;;;;5051943;28;20092;-62
2023/01/25 11:23:23;;;;;;;16.23;7.30;;;;;;;;;;5050329;28;20538;-62
2023/01/25 11:25:49;;;;;;;18.38;7.38;;;;;;;;;;5050321;28;20017;-62
2023/01/25 11:28:14;;;;;;;17.67;7.25;;;;;;;;;;5056512;28;20036;-62
2023/01/25 11:30:39;;;;;;;19.05;7.70;;;;;;;;;;5049569;28;20101;-62
2023/01/25 11:33:08;;;;;;;21.45;7.97;;;;;;;;;;5046827;28;20438;-62
2023/01/25 11:35:34;;;;;;;17.63;7.32;;;;;;;;;;5046984;28;20068;-64
2023/01/25 11:38:11;;;;;;;16.58;7.68;;;;;;;;;;5050470;28;20940;-61
2023/01/25 11:40:40;;;;;;;15.07;6.82;;;;;;;;;;5054685;28;20033;-62
2023/01/25 11:43:24;;;;;;;18.33;7.88;;;;;;;;;;5058907;28;20017;-61
2023/01/25 11:46:01;;;;;;;15.65;7.57;;;;;;;;;;5047869;28;20028;-62
2023/01/25 11:48:45;;;;;;;14.48;6.53;;;;;;;;;;5064303;28;20421;-62
2023/01/25 11:51:22;;;;;;;15.80;7.13;;;;;;;;;;5048807;28;20110;-62
2023/01/25 11:54:04;;;;;;;16.92;7.32;;;;;;;;;;5049705;28;20500;-62
2023/01/25 11:56:29;;;;;;;17.85;7.93;;;;;;;;;;5051069;28;20021;-62
2023/01/25 11:59:01;;;;;;;15.32;6.70;;;;;;;;;;5052200;28;20020;-63
2023/01/25 12:01:35;;;;;;;15.50;7.20;;;;;;;;;;5059895;28;20021;-62
2023/01/25 12:04:09;;;;;;;18.17;7.78;;;;;;;;;;5053454;28;20032;-62
2023/01/25 12:06:52;;;;;;;17.02;7.63;;;;;;;;;;5053301;28;20051;-62
2023/01/25 12:09:29;;;;;;;15.48;7.18;;;;;;;;;;5053577;28;20028;-62
2023/01/25 12:11:54;;;;;;;16.42;7.40;;;;;;;;;;5053555;28;20044;-63
2023/01/25 12:14:19;;;;;;;11.90;5.63;;;;;;;;;;5056928;28;20143;-62
2023/01/25 12:16:53;;;;;;;16.02;6.53;;;;;;;;;;5063696;28;20024;-63
2023/01/25 12:19:25;;;;;;;14.73;6.50;;;;;;;;;;5067626;28;20017;-62
2023/01/25 12:21:50;;;;;;;14.23;6.30;;;;;;;;;;5033190;28;20430;-62
2023/01/25 12:24:18;;;;;;;16.15;6.60;;;;;;;;;;5033317;28;20437;-63
2023/01/25 12:26:49;;;;;;;12.73;6.15;;;;;;;;;;5035799;28;20021;-62
2023/01/25 12:29:23;;;;;;;14.70;6.43;;;;;;;;;;5054868;28;20116;-61
2023/01/25 12:31:51;;;;;;;15.13;6.63;;;;;;;;;;5059148;28;20056;-64
2023/01/25 12:34:26;;;;;;;13.43;5.97;;;;;;;;;;5054639;28;20035;-62
2023/01/25 12:36:51;;;;;;;14.00;6.60;;;;;;;;;;5061444;28;20528;-62
2023/01/25 12:39:16;;;;;;;13.97;6.57;;;;;;;;;;5071471;28;20108;-62
2023/01/25 12:41:46;;;;;;;15.23;6.55;;;;;;;;;;5070012;28;20028;-62
2023/01/25 12:44:30;;;;;;;12.75;5.82;;;;;;;;;;5051801;28;20115;-66
2023/01/25 12:46:55;;;;;;;;;;;;;;;;;;5059445;28;20025;-66
2023/01/25 12:49:26;;;;;;;14.77;6.72;;;;;;;;;;5064218;28;19908;-66
2023/01/25 12:51:52;;;;;;;13.25;5.93;;;;;;;;;;5072773;28;20017;-63
2023/01/25 12:54:23;;;;;;;13.98;6.63;;;;;;;;;;5053141;28;20044;-62
2023/01/25 12:56:57;;;;;;;13.55;6.13;;;;;;;;;;5052223;28;20059;-63
2023/01/25 12:59:32;;;;;;;14.10;5.88;;;;;;;;;;5051286;28;20060;-67
2023/01/25 13:02:02;;;;;;;13.05;6.55;;;;;;;;;;5048121;28;20025;-64
2023/01/25 13:04:46;;;;;;;14.57;6.60;;;;;;;;;;5045811;28;20017;-63
2023/01/25 13:07:16;;;;;;;12.68;6.05;;;;;;;;;;5060661;28;20021;-64
2023/01/25 13:09:52;;;;;;;13.48;6.50;;;;;;;;;;5051748;28;20029;-65
2023/01/25 13:12:17;;;;;;;14.05;6.45;;;;;;;;;;5052048;28;20656;-62
2023/01/25 13:14:42;;;;;;;13.67;6.53;;;;;;;;;;5051346;28;20033;-62
2023/01/25 13:17:26;;;;;;;14.98;7.10;;;;;;;;;;5051969;28;20024;-65
2023/01/25 13:19:52;;;;;;;12.38;6.22;;;;;;;;;;5058098;28;20020;-62
2023/01/25 13:22:36;;;;;;;15.00;7.30;;;;;;;;;;5070826;28;20535;-63
2023/01/25 13:25:01;;;;;;;15.93;7.00;;;;;;;;;;5071912;28;20021;-63
2023/01/25 13:27:28;;;;;;;13.80;6.32;;;;;;;;;;5058608;28;20028;-66
2023/01/25 13:29:53;;;;;;;15.82;6.38;;;;;;;;;;5045182;28;20071;-63
2023/01/25 13:32:25;;;;;;;12.88;5.63;;;;;;;;;;5068149;28;20373;-65
2023/01/25 13:34:53;;;;;;;12.32;6.20;;;;;;;;;;5051064;28;20025;-62
2023/01/25 13:37:25;;;;;;;15.70;6.25;;;;;;;;;;5051682;28;20036;-62
2023/01/25 13:39:59;;;;;;;14.20;5.60;;;;;;;;;;5051960;28;20021;-63
2023/01/25 13:42:28;;;;;;;13.02;5.85;;;;;;;;;;5057062;28;20013;-62
2023/01/25 13:44:55;;;;;;;14.93;6.57;;;;;;;;;;5052703;28;20017;-62
2023/01/25 13:47:22;;;;;;;14.95;6.72;;;;;;;;;;5036326;28;20030;-68
2023/01/25 13:49:50;;;;;;;13.93;6.45;;;;;;;;;;5050500;28;20482;-62
2023/01/25 13:52:20;;;;;;;15.23;5.82;;;;;;;;;;5050066;28;20017;-63
2023/01/25 13:54:46;;;;;;;12.57;5.97;;;;;;;;;;5050298;28;20045;-63
2023/01/25 13:57:19;;;;;;;12.95;5.78;;;;;;;;;;5051840;28;20389;-63
2023/01/25 13:59:44;;;;;;;14.18;6.47;;;;;;;;;;5042765;28;20072;-63
2023/01/25 14:02:20;;;;;;;13.33;6.30;;;;;;;;;;5060553;28;20027;-63
2023/01/25 14:04:47;;;;;;;13.02;6.25;;;;;;;;;;5063891;28;20120;-63
2023/01/25 14:07:14;;;;;;;17.67;8.00;;;;;;;;;;5060876;28;20417;-63
2023/01/25 14:09:41;;;;;;;14.82;6.90;;;;;;;;;;5070741;28;20322;-62
2023/01/25 14:12:07;;;;;;;15.18;6.97;;;;;;;;;;5067211;28;20066;-63
2023/01/25 14:14:33;;;;;;;15.52;7.38;;;;;;;;;;5054378;28;20553;-63
2023/01/25 14:17:07;;;;;;;16.02;6.45;;;;;;;;;;5070962;28;20107;-62
2023/01/25 14:19:34;;;;;;;13.75;6.07;;;;;;;;;;5070001;28;20064;-64
2023/01/25 14:22:19;;;;;;;16.85;8.32;;;;;;;;;;5070691;28;20030;-63
2023/01/25 14:24:44;;;;;;;15.45;7.30;;;;;;;;;;5070951;28;20012;-63
2023/01/25 14:27:12;;;;;;;16.75;7.65;;;;;;;;;;5059037;28;20490;-63
2023/01/25 14:29:37;;;;;;;17.42;7.40;;;;;;;;;;5060527;28;20075;-62
2023/01/25 14:32:02;;;;;;;17.25;7.80;;;;;;;;;;5067090;28;20029;-63
2023/01/25 14:34:27;;;;;;;15.52;7.03;;;;;;;;;;5070552;28;20040;-63